< < Back
Terminal Aerodrome Forecast


Current Version              Previous Versions:   1  2  3  4  5  6  7  8  9  

Terminal Aerodrome Forecast

627
FTUS42 KMLB 051032 AAB
TAFDAB
TAF AMD
KDAB 051032Z 0511/0606 00000KT P6SM BCFG FEW040
     FM051400 21007KT P6SM SCT025 BKN035
     FM060400 30005KT P6SM BKN035 OVC060=



Latest METAR

091
SAUS80 KWBC 060000 RRD
MTRDAB
METAR KDAB 052353Z 25006KT 10SM FEW050 FEW120 FEW250 26/17 A3008 RMK AO2
SLP183 T02560167 10306 20256 53014


USA.gov is the U.S. government's official web portal to all federal, state and local government web resources and services.